Time;durP1;ratioP1;P1;durP2;ratioP2;P2;SDS_P1;SDS_P2;PMS_P1;PMS_P2;Temp;Humidity;BMP_temperature;BMP_pressure;BME280_temperature;BME280_humidity;BME280_pressure;Samples;Min_cycle;Max_cycle;Signal;HPM_P1;HPM_P2
2021/05/20 00:00:15;;;;;;;13.50;9.73;;;359.30;2329.60;;;;;;5096132;28;20483;-67
2021/05/20 00:02:42;;;;;;;11.15;10.00;;;384.00;2329.60;;;;;;5096173;28;20432;-67
2021/05/20 00:05:10;;;;;;;12.65;10.07;;;359.30;2329.60;;;;;;5096053;28;20035;-67
2021/05/20 00:07:36;;;;;;;14.50;10.50;;;384.10;2329.60;;;;;;5095944;28;20372;-67
2021/05/20 00:10:05;;;;;;;11.48;9.93;;;384.10;2329.60;;;;;;5096204;28;20379;-67
2021/05/20 00:12:31;;;;;;;10.75;9.65;;;384.00;2329.60;;;;;;5095893;28;20400;-67
2021/05/20 00:14:57;;;;;;;10.73;9.63;;;359.30;2329.60;;;;;;5095534;28;20380;-67
2021/05/20 00:17:23;;;;;;;12.40;10.15;;;359.20;2329.60;;;;;;5095749;28;20411;-67
2021/05/20 00:19:49;;;;;;;11.65;8.80;;;359.20;2329.60;;;;;;5096018;28;20387;-67
2021/05/20 00:22:16;;;;;;;14.73;9.85;;;359.20;2329.60;;;;;;5095595;28;20372;-67
2021/05/20 00:24:42;;;;;;;10.85;8.82;;;359.20;2329.60;;;;;;5095671;28;20456;-67
2021/05/20 00:27:08;;;;;;;9.00;8.10;;;359.20;2329.60;;;;;;5095560;28;20411;-67
2021/05/20 00:29:34;;;;;;;12.43;7.68;;;359.20;2329.60;;;;;;5095844;28;20391;-68
2021/05/20 00:32:00;;;;;;;10.90;8.35;;;359.30;2329.60;;;;;;5095402;28;20387;-67
2021/05/20 00:34:26;;;;;;;8.25;7.43;;;359.30;2304.00;;;;;;5095395;28;20373;-67
2021/05/20 00:36:52;;;;;;;11.48;8.00;;;359.20;2329.60;;;;;;5095421;28;20368;-67
2021/05/20 00:39:18;;;;;;;8.50;7.43;;;384.00;2304.00;;;;;;5095603;28;20427;-67
2021/05/20 00:41:44;;;;;;;8.80;7.60;;;384.10;2304.00;;;;;;5095249;28;20418;-67
2021/05/20 00:44:10;;;;;;;8.70;7.80;;;384.10;2304.00;;;;;;5095490;28;20364;-67
2021/05/20 00:46:36;;;;;;;10.55;7.35;;;384.10;2304.00;;;;;;5095142;28;20027;-67
2021/05/20 00:49:09;;;;;;;9.18;6.90;;;384.00;2304.00;;;;;;5095200;28;20479;-67
2021/05/20 00:51:37;;;;;;;8.40;7.43;;;384.10;2278.40;;;;;;5095159;28;20346;-67
2021/05/20 00:54:04;;;;;;;8.85;7.07;;;384.10;2304.00;;;;;;5094979;28;20353;-67
2021/05/20 00:56:36;;;;;;;8.77;7.22;;;384.10;2304.00;;;;;;5094923;28;20439;-67
2021/05/20 00:59:04;;;;;;;8.77;7.47;;;384.10;2304.00;;;;;;5094943;28;20460;-66
2021/05/20 01:01:31;;;;;;;7.72;6.93;;;384.00;2304.00;;;;;;5094780;28;20461;-66
2021/05/20 01:03:57;;;;;;;7.60;6.40;;;384.10;2278.40;;;;;;5094871;28;20368;-66
2021/05/20 01:06:23;;;;;;;8.23;6.13;;;384.10;2278.40;;;;;;5093790;28;20396;-67
2021/05/20 01:08:50;;;;;;;7.50;6.00;;;384.10;2278.40;;;;;;5094749;28;20349;-66
2021/05/20 01:11:16;;;;;;;8.73;6.20;;;384.10;2278.40;;;;;;5094631;28;20471;-67
2021/05/20 01:13:42;;;;;;;7.60;6.45;;;384.10;2278.40;;;;;;5094601;28;20364;-66
2021/05/20 01:16:12;;;;;;;7.35;6.65;;;384.00;2278.40;;;;;;5094388;28;20365;-67
2021/05/20 01:18:39;;;;;;;6.80;6.10;;;384.10;2278.40;;;;;;5094512;28;20422;-67
2021/05/20 01:21:05;;;;;;;6.53;5.38;;;384.10;2278.40;;;;;;5094490;28;20468;-67
2021/05/20 01:23:31;;;;;;;6.82;6.13;;;384.10;2304.00;;;;;;5094404;28;20373;-68
2021/05/20 01:26:02;;;;;;;7.63;6.63;;;384.10;2278.40;;;;;;5094364;28;20352;-67
2021/05/20 01:28:31;;;;;;;8.65;6.85;;;384.00;2304.00;;;;;;5094360;28;20403;-67
2021/05/20 01:30:57;;;;;;;8.30;7.50;;;384.00;2304.00;;;;;;5094383;28;20406;-67
2021/05/20 01:33:23;;;;;;;11.20;8.48;;;384.00;2304.00;;;;;;5094329;28;20464;-67
2021/05/20 01:35:49;;;;;;;9.63;8.63;;;384.00;2304.00;;;;;;5094301;28;20464;-67
2021/05/20 01:40:50;;;;;;;15.90;9.57;;;384.00;2304.00;;;;;;5094240;28;20488;-68
2021/05/20 01:43:17;;;;;;;10.65;9.52;;;384.00;2278.40;;;;;;5094027;28;20376;-67
2021/05/20 01:45:50;;;;;;;12.57;10.75;;;384.00;2278.40;;;;;;5094309;28;20406;-67
2021/05/20 01:48:16;;;;;;;11.00;9.77;;;384.00;2278.40;;;;;;5094342;28;20399;-68
2021/05/20 01:50:42;;;;;;;11.18;9.80;;;384.00;2304.00;;;;;;5093916;28;20357;-67
2021/05/20 01:53:09;;;;;;;11.40;10.20;;;384.00;2304.00;;;;;;5094540;28;20475;-67
2021/05/20 01:55:35;;;;;;;11.70;10.48;;;359.20;2304.00;;;;;;5093859;28;20027;-67
2021/05/20 01:58:01;;;;;;;12.32;11.10;;;359.10;2329.60;;;;;;5093879;28;20375;-67
2021/05/20 02:00:28;;;;;;;12.38;11.07;;;359.10;2329.60;;;;;;5093228;28;20391;-67
2021/05/20 02:02:54;;;;;;;11.93;10.32;;;359.10;2329.60;;;;;;5093715;28;20444;-67
2021/05/20 02:05:20;;;;;;;11.73;10.52;;;359.10;2329.60;;;;;;5093714;28;20372;-67
2021/05/20 02:07:46;;;;;;;11.82;10.63;;;359.00;2329.60;;;;;;5093973;28;20345;-67
2021/05/20 02:10:12;;;;;;;12.45;10.73;;;359.10;2329.60;;;;;;5093738;28;20418;-67
2021/05/20 02:12:38;;;;;;;14.43;11.75;;;359.00;2329.60;;;;;;5093583;28;20070;-67
2021/05/20 02:15:05;;;;;;;12.63;10.43;;;359.10;2329.60;;;;;;5093593;28;20083;-66
2021/05/20 02:17:32;;;;;;;12.73;11.40;;;359.00;2329.60;;;;;;5093910;28;20411;-67
2021/05/20 02:19:58;;;;;;;13.45;12.07;;;359.00;2329.60;;;;;;5093535;28;20380;-67
2021/05/20 02:22:24;;;;;;;13.77;12.38;;;358.90;2329.60;;;;;;5093483;28;20396;-67
2021/05/20 02:24:50;;;;;;;15.82;12.55;;;359.00;2329.60;;;;;;5094004;28;20419;-67
2021/05/20 02:27:16;;;;;;;13.25;11.88;;;359.00;2329.60;;;;;;5093593;28;20484;-67
2021/05/20 02:29:43;;;;;;;16.10;13.35;;;359.00;2329.60;;;;;;5093542;28;20364;-67
2021/05/20 02:32:09;;;;;;;15.07;13.07;;;359.10;2329.60;;;;;;5093737;28;20407;-67
2021/05/20 02:34:35;;;;;;;15.35;13.75;;;359.00;2329.60;;;;;;5093451;28;20346;-67
2021/05/20 02:37:01;;;;;;;15.32;13.18;;;358.90;2329.60;;;;;;5093723;28;20419;-66
2021/05/20 02:39:27;;;;;;;14.55;13.05;;;358.90;2329.60;;;;;;5093389;28;20360;-67
2021/05/20 02:41:53;;;;;;;15.40;13.90;;;359.00;2329.60;;;;;;5093629;28;20421;-67
2021/05/20 02:44:19;;;;;;;15.25;13.48;;;358.90;2329.60;;;;;;5093298;28;20383;-67
2021/05/20 02:46:45;;;;;;;13.32;11.90;;;359.00;2329.60;;;;;;5093327;28;20395;-66
2021/05/20 02:49:11;;;;;;;15.00;13.50;;;359.00;2329.60;;;;;;5093303;28;20420;-67
2021/05/20 02:51:37;;;;;;;15.00;13.50;;;359.10;2329.60;;;;;;5093338;28;20372;-67
2021/05/20 02:54:04;;;;;;;14.20;12.90;;;359.10;2329.60;;;;;;5093252;28;20372;-67
2021/05/20 02:56:30;;;;;;;14.98;13.48;;;359.10;2329.60;;;;;;5093192;28;20414;-67
2021/05/20 02:58:56;;;;;;;14.77;13.30;;;359.10;2329.60;;;;;;5093854;28;20357;-67
2021/05/20 03:01:23;;;;;;;16.40;13.02;;;359.00;2329.60;;;;;;5093049;28;20360;-67
2021/05/20 03:03:49;;;;;;;14.25;12.85;;;359.00;2329.60;;;;;;5093150;28;20483;-67
2021/05/20 03:06:16;;;;;;;15.43;13.57;;;359.00;2329.60;;;;;;5093150;28;20364;-67
2021/05/20 03:08:42;;;;;;;16.88;14.88;;;359.00;2329.60;;;;;;5093080;28;20372;-66
2021/05/20 03:11:08;;;;;;;17.38;14.60;;;358.80;2329.60;;;;;;5093106;28;20427;-67
2021/05/20 03:13:34;;;;;;;17.48;15.40;;;358.90;2329.60;;;;;;5094989;28;20107;-66
2021/05/20 03:16:00;;;;;;;17.13;14.63;;;358.90;2329.60;;;;;;5096707;28;20358;-67
2021/05/20 03:18:26;;;;;;;16.75;14.88;;;358.80;2329.60;;;;;;5097137;28;20028;-67
2021/05/20 03:20:52;;;;;;;18.20;15.85;;;358.80;2329.60;;;;;;5096887;28;20439;-67
2021/05/20 03:23:18;;;;;;;16.23;14.55;;;358.90;2329.60;;;;;;5096698;28;20594;-67
2021/05/20 03:25:44;;;;;;;16.40;14.70;;;358.80;2329.60;;;;;;5096770;28;20364;-67
2021/05/20 03:28:10;;;;;;;19.42;14.02;;;358.80;2329.60;;;;;;5096658;28;20371;-67
2021/05/20 03:30:36;;;;;;;15.98;14.27;;;358.80;2329.60;;;;;;5096686;28;20372;-66
2021/05/20 03:33:03;;;;;;;15.73;13.50;;;358.70;2329.60;;;;;;5096514;28;20028;-67
2021/05/20 03:35:29;;;;;;;14.20;12.63;;;358.60;2329.60;;;;;;5096844;28;20401;-67
2021/05/20 03:37:55;;;;;;;13.73;12.35;;;358.70;2329.60;;;;;;5096476;28;20353;-66
2021/05/20 03:40:21;;;;;;;12.95;11.68;;;358.70;2329.60;;;;;;5096487;28;20368;-66
2021/05/20 03:42:47;;;;;;;13.25;11.95;;;358.70;2329.60;;;;;;5096737;28;20376;-66
2021/05/20 03:45:13;;;;;;;13.57;12.02;;;358.60;2329.60;;;;;;5096353;28;20449;-67
2021/05/20 03:47:40;;;;;;;14.25;12.05;;;358.70;2329.60;;;;;;5096408;28;20364;-66
2021/05/20 03:50:06;;;;;;;14.25;12.13;;;358.60;2329.60;;;;;;5096251;28;20334;-66
2021/05/20 03:52:32;;;;;;;13.43;12.02;;;358.70;2329.60;;;;;;5096213;28;20405;-66
2021/05/20 03:54:58;;;;;;;13.95;12.45;;;358.80;2329.60;;;;;;5096185;28;20375;-66
2021/05/20 03:57:24;;;;;;;14.07;12.00;;;358.80;2329.60;;;;;;5096161;28;20357;-67
2021/05/20 03:59:50;;;;;;;13.00;11.68;;;358.70;2329.60;;;;;;5096147;28;20024;-67
2021/05/20 04:02:16;;;;;;;12.30;11.07;;;358.60;2329.60;;;;;;5096273;28;20119;-67
2021/05/20 04:04:44;;;;;;;11.50;10.30;;;358.70;2329.60;;;;;;5096042;28;20345;-67
2021/05/20 04:07:10;;;;;;;11.10;10.00;;;358.60;2329.60;;;;;;5095966;28;20435;-68
2021/05/20 04:09:36;;;;;;;9.10;8.13;;;358.60;2329.60;;;;;;5095810;28;20386;-67
2021/05/20 04:12:02;;;;;;;11.30;8.38;;;358.60;2329.60;;;;;;5095789;28;20341;-67
2021/05/20 04:14:28;;;;;;;9.80;7.93;;;358.70;2329.60;;;;;;5095542;28;20361;-67
2021/05/20 04:16:54;;;;;;;7.53;6.63;;;358.60;2329.60;;;;;;5095714;28;20388;-67
2021/05/20 04:19:21;;;;;;;7.20;6.50;;;358.70;2329.60;;;;;;5095962;28;20040;-68
2021/05/20 04:21:47;;;;;;;7.85;5.97;;;358.60;2329.60;;;;;;5094540;28;20375;-68
2021/05/20 04:24:13;;;;;;;8.15;5.95;;;358.60;2329.60;;;;;;5095111;28;20372;-66
2021/05/20 04:26:40;;;;;;;6.55;5.95;;;358.50;2329.60;;;;;;5095653;28;20425;-66
2021/05/20 04:29:08;;;;;;;7.40;6.60;;;358.40;2329.60;;;;;;5095521;28;20465;-67
2021/05/20 04:31:34;;;;;;;9.02;7.05;;;358.50;2329.60;;;;;;5095801;28;20453;-67
2021/05/20 04:34:01;;;;;;;7.03;6.32;;;358.60;2329.60;;;;;;5095377;28;20482;-67
2021/05/20 04:36:27;;;;;;;6.55;5.70;;;358.60;2329.60;;;;;;5095337;28;20487;-67
2021/05/20 04:38:53;;;;;;;7.85;6.38;;;358.50;2329.60;;;;;;5095349;28;20376;-67
2021/05/20 04:41:20;;;;;;;6.70;5.97;;;358.50;2329.60;;;;;;5095170;28;20417;-67
2021/05/20 04:43:46;;;;;;;6.55;5.60;;;358.40;2329.60;;;;;;5095528;28;20385;-67
2021/05/20 04:46:12;;;;;;;6.35;5.53;;;358.40;2329.60;;;;;;5095149;28;20456;-67
2021/05/20 04:48:38;;;;;;;8.23;6.30;;;333.70;2329.60;;;;;;5095211;28;20395;-67
2021/05/20 04:51:04;;;;;;;5.90;5.30;;;333.60;2329.60;;;;;;5095105;28;20422;-67
2021/05/20 04:53:30;;;;;;;6.13;5.00;;;333.70;2329.60;;;;;;5095038;28;20077;-67
2021/05/20 04:55:56;;;;;;;5.32;4.82;;;333.70;2329.60;;;;;;5094998;28;20368;-67
2021/05/20 04:58:23;;;;;;;5.95;5.35;;;333.70;2329.60;;;;;;5094945;28;20422;-66
2021/05/20 05:00:49;;;;;;;4.70;4.30;;;333.70;2329.60;;;;;;5094872;28;20435;-67
2021/05/20 05:03:16;;;;;;;5.30;4.15;;;333.70;2329.60;;;;;;5094738;28;20461;-66
2021/05/20 05:05:42;;;;;;;5.80;4.00;;;333.70;2329.60;;;;;;5094780;28;20448;-67
2021/05/20 05:08:08;;;;;;;4.47;3.42;;;333.60;2329.60;;;;;;5094760;28;20357;-66
2021/05/20 05:10:34;;;;;;;6.90;4.28;;;333.60;2329.60;;;;;;5094693;28;20028;-67
2021/05/20 05:13:00;;;;;;;3.80;3.03;;;358.40;2329.60;;;;;;5094692;28;20432;-66
2021/05/20 05:15:27;;;;;;;3.38;2.90;;;358.40;2329.60;;;;;;5094438;28;20508;-66
2021/05/20 05:17:53;;;;;;;4.28;3.08;;;358.40;2329.60;;;;;;5094603;28;20406;-66
2021/05/20 05:20:20;;;;;;;5.22;2.80;;;358.40;2329.60;;;;;;5094863;28;20540;-66
2021/05/20 05:22:47;;;;;;;5.25;2.80;;;358.50;2329.60;;;;;;5094358;28;20385;-67
2021/05/20 05:25:13;;;;;;;3.00;2.70;;;333.70;2329.60;;;;;;5094383;28;20418;-67
2021/05/20 05:27:39;;;;;;;4.70;3.22;;;333.70;2329.60;;;;;;5094413;28;20400;-67
2021/05/20 05:30:06;;;;;;;4.82;2.58;;;333.70;2329.60;;;;;;5094344;28;20369;-67
2021/05/20 05:32:32;;;;;;;3.13;2.35;;;333.60;2329.60;;;;;;5094347;28;20466;-67
2021/05/20 05:34:58;;;;;;;3.78;2.20;;;333.60;2329.60;;;;;;5093784;28;20372;-67
2021/05/20 05:37:24;;;;;;;3.63;2.50;;;333.60;2329.60;;;;;;5093792;28;20384;-67
2021/05/20 05:39:50;;;;;;;4.72;3.85;;;333.60;2329.60;;;;;;5094214;28;20353;-66
2021/05/20 05:42:16;;;;;;;2.90;2.35;;;333.60;2329.60;;;;;;5094027;28;20032;-67
2021/05/20 05:44:42;;;;;;;3.20;2.55;;;333.50;2329.60;;;;;;5094114;28;20395;-67
2021/05/20 05:47:08;;;;;;;5.18;2.08;;;333.60;2329.60;;;;;;5094035;28;20411;-68
2021/05/20 05:49:44;;;;;;;2.60;2.15;;;358.40;2329.60;;;;;;5094653;28;20398;-66
2021/05/20 05:52:17;;;;;;;4.80;2.50;;;358.40;2329.60;;;;;;5094009;28;20461;-66
2021/05/20 05:54:43;;;;;;;3.70;2.47;;;358.40;2329.60;;;;;;5095171;28;20395;-66
2021/05/20 05:57:09;;;;;;;4.35;2.33;;;358.40;2329.60;;;;;;5093984;28;20449;-67
2021/05/20 05:59:35;;;;;;;4.72;2.40;;;358.50;2329.60;;;;;;5093902;28;20024;-66
2021/05/20 06:02:02;;;;;;;5.40;2.78;;;358.50;2329.60;;;;;;5093753;28;20376;-67
2021/05/20 06:04:30;;;;;;;4.28;3.08;;;358.50;2329.60;;;;;;5093867;28;20448;-67
2021/05/20 06:06:57;;;;;;;4.30;2.55;;;358.50;2329.60;;;;;;5094098;28;20465;-67
2021/05/20 06:09:23;;;;;;;3.85;2.50;;;358.40;2329.60;;;;;;5093743;28;20354;-67
2021/05/20 06:11:49;;;;;;;5.88;2.75;;;333.70;2329.60;;;;;;5093715;28;20479;-66
2021/05/20 06:14:15;;;;;;;3.08;2.42;;;333.70;2329.60;;;;;;5093464;28;20035;-66
2021/05/20 06:16:41;;;;;;;4.80;2.80;;;333.70;2329.60;;;;;;5093557;28;20425;-66
2021/05/20 06:19:09;;;;;;;4.25;3.05;;;358.40;2329.60;;;;;;5093660;28;20460;-66
2021/05/20 06:21:36;;;;;;;3.53;2.65;;;358.40;2329.60;;;;;;5093574;28;20528;-67
2021/05/20 06:24:02;;;;;;;7.05;2.60;;;358.40;2329.60;;;;;;5093543;28;20518;-67
2021/05/20 06:26:29;;;;;;;3.95;2.30;;;358.40;2329.60;;;;;;5093476;28;20387;-67
2021/05/20 06:28:56;;;;;;;8.07;2.53;;;333.70;2329.60;;;;;;5093434;28;20476;-66
2021/05/20 06:31:22;;;;;;;4.68;2.30;;;333.70;2329.60;;;;;;5093522;28;20449;-66
2021/05/20 06:33:49;;;;;;;4.22;2.10;;;358.40;2329.60;;;;;;5093433;28;20466;-66
2021/05/20 06:36:16;;;;;;;2.90;2.15;;;358.40;2329.60;;;;;;5093424;28;20522;-66
2021/05/20 06:38:42;;;;;;;4.43;2.38;;;358.40;2329.60;;;;;;5093419;28;20376;-65
2021/05/20 06:41:09;;;;;;;3.08;1.60;;;358.50;2329.60;;;;;;5093523;28;20399;-67
2021/05/20 06:43:38;;;;;;;3.75;2.25;;;333.70;2329.60;;;;;;5093359;28;20525;-66
2021/05/20 06:46:05;;;;;;;4.45;2.00;;;333.70;2329.60;;;;;;5093410;28;20391;-66
2021/05/20 06:48:32;;;;;;;2.80;2.15;;;333.60;2329.60;;;;;;5096960;28;20364;-66
2021/05/20 06:50:58;;;;;;;5.28;2.05;;;333.70;2329.60;;;;;;5097543;28;20529;-65
2021/05/20 06:53:26;;;;;;;2.72;1.83;;;333.60;2329.60;;;;;;5097353;28;20409;-65
2021/05/20 06:55:56;;;;;;;3.97;2.20;;;333.50;2329.60;;;;;;5097667;28;20360;-66
2021/05/20 07:01:07;;;;;;;3.03;2.00;;;333.50;2329.60;;;;;;5097919;28;20027;-65
2021/05/20 07:03:33;;;;;;;2.90;2.20;;;333.40;2329.60;;;;;;5097106;28;20429;-66
2021/05/20 07:05:59;;;;;;;3.88;2.33;;;333.30;2329.60;;;;;;5097544;28;20047;-66
2021/05/20 07:08:25;;;;;;;3.17;2.13;;;333.30;2329.60;;;;;;5097089;28;20345;-66
2021/05/20 07:10:55;;;;;;;2.97;2.10;;;333.30;2329.60;;;;;;5097122;28;20364;-66
2021/05/20 07:13:22;;;;;;;2.40;2.10;;;333.30;2329.60;;;;;;5097038;28;20359;-66
2021/05/20 07:15:49;;;;;;;7.25;3.00;;;333.30;2329.60;;;;;;5096766;28;20369;-66
2021/05/20 07:18:16;;;;;;;7.28;3.83;;;333.40;2329.60;;;;;;5097245;28;20446;-66
2021/05/20 07:20:42;;;;;;;12.40;4.88;;;333.40;2329.60;;;;;;5096878;28;20518;-66
2021/05/20 07:23:16;;;;;;;13.15;5.22;;;333.50;2329.60;;;;;;5097116;28;20389;-67
2021/05/20 07:25:42;;;;;;;;;;;333.50;2329.60;;;;;;5097241;28;20388;-66
2021/05/20 07:31:31;;;;;;;4.32;3.13;;;333.50;2329.60;;;;;;5096758;28;20023;-66
2021/05/20 07:33:57;;;;;;;3.42;2.70;;;333.50;2329.60;;;;;;5096619;28;20424;-66
2021/05/20 07:36:23;;;;;;;4.30;3.03;;;333.50;2329.60;;;;;;5096588;28;20468;-66
2021/05/20 07:38:50;;;;;;;3.78;2.80;;;333.50;2329.60;;;;;;5096573;28;20384;-66
2021/05/20 07:41:16;;;;;;;4.32;2.75;;;333.60;2329.60;;;;;;5096496;28;20376;-66
2021/05/20 07:43:43;;;;;;;9.00;4.07;;;333.60;2329.60;;;;;;5096357;28;20380;-66
2021/05/20 07:46:10;;;;;;;4.80;3.47;;;333.60;2329.60;;;;;;5096681;28;20405;-66
2021/05/20 07:48:37;;;;;;;5.95;4.22;;;333.60;2329.60;;;;;;5096393;28;20407;-66
2021/05/20 07:51:05;;;;;;;5.50;3.92;;;333.60;2329.60;;;;;;5096321;28;20350;-66
2021/05/20 07:53:32;;;;;;;6.45;4.85;;;333.70;2329.60;;;;;;5096289;28;20357;-66
2021/05/20 07:55:58;;;;;;;17.02;10.88;;;333.70;2329.60;;;;;;5096312;28;20542;-66
2021/05/20 07:58:24;;;;;;;15.35;8.98;;;358.40;2329.60;;;;;;5095285;28;20460;-65
2021/05/20 08:00:50;;;;;;;11.23;7.85;;;333.70;2329.60;;;;;;5096257;28;20449;-66
2021/05/20 08:06:22;;;;;;;6.82;4.22;;;333.60;2329.60;;;;;;5096079;28;20531;-65
2021/05/20 08:11:22;;;;;;;7.25;4.97;;;333.60;2329.60;;;;;;5096618;28;20185;-65
2021/05/20 08:13:49;;;;;;;6.03;5.43;;;333.60;2329.60;;;;;;5095900;28;20472;-66
2021/05/20 08:16:16;;;;;;;8.95;6.70;;;333.60;2329.60;;;;;;5095682;28;20477;-66
2021/05/20 08:18:42;;;;;;;6.90;6.15;;;333.60;2329.60;;;;;;5095743;28;20406;-66
2021/05/20 08:21:09;;;;;;;8.70;6.63;;;333.50;2329.60;;;;;;5095731;28;20464;-65
2021/05/20 08:23:36;;;;;;;12.25;9.98;;;333.60;2329.60;;;;;;5095596;28;20487;-66
2021/05/20 08:26:03;;;;;;;8.65;6.47;;;333.50;2329.60;;;;;;5095612;28;20341;-67
2021/05/20 08:28:30;;;;;;;10.38;8.68;;;333.50;2329.60;;;;;;5095575;28;20456;-63
2021/05/20 08:30:56;;;;;;;9.32;8.35;;;333.50;2329.60;;;;;;5096099;28;20352;-66
2021/05/20 08:33:23;;;;;;;9.70;8.80;;;333.50;2329.60;;;;;;5095543;28;20342;-66
2021/05/20 08:35:49;;;;;;;19.02;14.75;;;333.50;2329.60;;;;;;5095436;28;20461;-65
2021/05/20 08:38:15;;;;;;;28.70;25.05;;;333.50;2329.60;;;;;;5095647;28;20372;-64
2021/05/20 08:40:42;;;;;;;73.82;56.08;;;333.50;2329.60;;;;;;5095481;28;20368;-67
2021/05/20 08:43:08;;;;;;;47.28;36.78;;;333.50;2329.60;;;;;;5095226;28;20609;-66
2021/05/20 08:45:37;;;;;;;104.18;72.22;;;333.50;2329.60;;;;;;5095867;28;20440;-66
2021/05/20 08:48:03;;;;;;;109.53;71.88;;;333.70;2329.60;;;;;;5095265;28;20461;-66
2021/05/20 08:50:31;;;;;;;84.75;51.60;;;333.50;2329.60;;;;;;5095160;28;20377;-66
2021/05/20 08:52:58;;;;;;;69.55;40.28;;;333.50;2329.60;;;;;;5095124;28;20385;-66
2021/05/20 08:55:34;;;;;;;72.70;47.85;;;333.50;2329.60;;;;;;5095034;28;20349;-66
2021/05/20 08:58:02;;;;;;;51.35;31.95;;;333.50;2329.60;;;;;;5095120;28;20390;-65
2021/05/20 09:00:29;;;;;;;15.18;11.88;;;333.60;2329.60;;;;;;5095070;28;20438;-66
2021/05/20 09:03:12;;;;;;;80.38;40.67;;;333.60;2329.60;;;;;;5094836;28;20115;-66
2021/05/20 09:05:43;;;;;;;27.17;14.82;;;333.50;2329.60;;;;;;5093668;28;20380;-65
2021/05/20 09:08:22;;;;;;;38.88;21.27;;;333.50;2329.60;;;;;;5094728;28;20073;-64
2021/05/20 09:10:50;;;;;;;99.63;41.38;;;333.50;2329.60;;;;;;5093595;28;20372;-65
2021/05/20 09:13:19;;;;;;;92.75;37.92;;;333.50;2329.60;;;;;;5094577;28;20065;-66
2021/05/20 09:15:53;;;;;;;131.88;51.60;;;333.50;2329.60;;;;;;5094475;28;20451;-65
2021/05/20 09:18:29;;;;;;;132.23;56.55;;;333.60;2329.60;;;;;;5094666;28;20437;-66
2021/05/20 09:20:58;;;;;;;122.10;54.38;;;333.60;2329.60;;;;;;5094466;28;20372;-65
2021/05/20 09:23:26;;;;;;;37.75;22.98;;;333.50;2329.60;;;;;;5093128;28;20404;-65
2021/05/20 09:26:02;;;;;;;65.55;35.55;;;333.50;2329.60;;;;;;5094404;28;20445;-65
2021/05/20 09:28:34;;;;;;;38.42;23.85;;;333.50;2329.60;;;;;;5094980;28;20450;-66
2021/05/20 09:31:00;;;;;;;32.45;22.83;;;333.60;2329.60;;;;;;5094317;28;20484;-65
2021/05/20 09:33:27;;;;;;;27.25;18.30;;;333.50;2329.60;;;;;;5094327;28;20364;-65
2021/05/20 09:35:53;;;;;;;22.30;16.58;;;333.50;2329.60;;;;;;5094318;28;20454;-64
2021/05/20 09:38:21;;;;;;;18.65;13.57;;;333.50;2329.60;;;;;;5094154;28;20024;-65
2021/05/20 09:40:48;;;;;;;25.75;17.55;;;333.60;2329.60;;;;;;5094109;28;20373;-65
2021/05/20 09:43:21;;;;;;;30.20;20.33;;;333.70;2329.60;;;;;;5093860;28;20081;-65
2021/05/20 09:45:51;;;;;;;37.05;22.15;;;333.70;2329.60;;;;;;5094004;28;20341;-66
2021/05/20 09:48:18;;;;;;;18.92;14.27;;;333.70;2329.60;;;;;;5093888;28;20480;-65
2021/05/20 09:50:53;;;;;;;17.70;13.95;;;333.60;2329.60;;;;;;5094411;28;20433;-67
2021/05/20 09:53:21;;;;;;;14.48;10.80;;;333.70;2329.60;;;;;;5093724;28;20361;-68
2021/05/20 09:55:55;;;;;;;11.88;9.48;;;333.60;2329.60;;;;;;5093772;28;20368;-64
2021/05/20 09:58:26;;;;;;;14.30;11.88;;;333.50;2329.60;;;;;;5093754;28;20349;-67
2021/05/20 10:01:00;;;;;;;17.08;11.13;;;333.50;2329.60;;;;;;5093742;28;20389;-67
2021/05/20 10:03:34;;;;;;;13.20;9.93;;;333.60;2329.60;;;;;;5093722;28;20069;-68
2021/05/20 10:06:01;;;;;;;12.60;9.68;;;333.60;2329.60;;;;;;5093567;28;20445;-66
2021/05/20 10:08:30;;;;;;;13.45;10.18;;;333.60;2329.60;;;;;;5093614;28;20360;-66
2021/05/20 10:11:01;;;;;;;16.20;10.82;;;333.50;2329.60;;;;;;5093504;28;20403;-67
2021/05/20 10:13:29;;;;;;;15.75;11.48;;;333.50;2329.60;;;;;;5093532;28;20501;-66
2021/05/20 10:15:57;;;;;;;19.48;11.35;;;333.50;2329.60;;;;;;5093421;28;20377;-67
2021/05/20 10:18:29;;;;;;;17.95;12.52;;;333.50;2329.60;;;;;;5093551;28;20368;-67
2021/05/20 10:21:01;;;;;;;26.02;14.27;;;333.40;2329.60;;;;;;5093416;28;20422;-66
2021/05/20 10:23:28;;;;;;;13.68;10.90;;;333.40;2329.60;;;;;;5093036;28;20521;-67
2021/05/20 10:25:55;;;;;;;16.67;15.00;;;333.40;2329.60;;;;;;5093873;28;20383;-65
2021/05/20 10:28:25;;;;;;;15.00;12.80;;;333.50;2329.60;;;;;;5093348;28;20523;-65
2021/05/20 10:31:05;;;;;;;24.95;22.50;;;333.50;2329.60;;;;;;5093251;28;20540;-65
2021/05/20 10:34:03;;;;;;;39.65;35.80;;;333.60;2329.60;;;;;;5093015;28;20468;-67
2021/05/20 10:36:29;;;;;;;27.13;24.52;;;333.60;2329.60;;;;;;5093296;28;20452;-67
2021/05/20 10:38:56;;;;;;;17.85;15.88;;;333.70;2329.60;;;;;;5093668;28;20333;-67
2021/05/20 10:41:27;;;;;;;15.43;13.90;;;358.40;2329.60;;;;;;5093748;28;20487;-65
2021/05/20 10:44:02;;;;;;;14.80;13.43;;;358.40;2329.60;;;;;;5091945;28;20026;-65
2021/05/20 10:46:28;;;;;;;15.98;14.50;;;358.40;2329.60;;;;;;5093355;28;20363;-65
2021/05/20 10:48:56;;;;;;;14.32;12.93;;;358.40;2329.60;;;;;;5093333;28;20379;-68
2021/05/20 10:51:28;;;;;;;14.73;12.30;;;358.40;2329.60;;;;;;5093611;28;20418;-65
2021/05/20 10:53:56;;;;;;;14.30;12.25;;;358.40;2329.60;;;;;;5093317;28;20531;-67
2021/05/20 10:56:22;;;;;;;14.20;11.30;;;358.40;2329.60;;;;;;5093285;28;20464;-68
2021/05/20 10:58:52;;;;;;;14.27;12.48;;;358.40;2329.60;;;;;;5093921;28;20524;-65
2021/05/20 11:01:21;;;;;;;14.70;12.05;;;358.40;2329.60;;;;;;5093304;28;20427;-65
2021/05/20 11:03:49;;;;;;;20.75;16.02;;;358.40;2329.60;;;;;;5093143;28;20498;-65
2021/05/20 11:06:16;;;;;;;13.02;11.45;;;358.40;2329.60;;;;;;5093220;28;20356;-66
2021/05/20 11:08:50;;;;;;;15.85;14.15;;;358.40;2329.60;;;;;;5093776;28;20452;-66
2021/05/20 11:11:32;;;;;;;12.63;10.65;;;358.40;2329.60;;;;;;5093387;28;20391;-66
2021/05/20 11:14:00;;;;;;;11.52;10.00;;;358.40;2329.60;;;;;;5093328;28;20422;-68
2021/05/20 11:16:33;;;;;;;13.80;11.60;;;358.40;2329.60;;;;;;5092818;28;20380;-65
2021/05/20 11:19:18;;;;;;;;;;;333.70;2329.60;;;;;;5093513;28;20391;-66
2021/05/20 11:21:59;;;;;;;15.20;12.32;;;333.70;2329.60;;;;;;5093090;28;20345;-65
2021/05/20 11:24:29;;;;;;;12.57;11.30;;;333.60;2329.60;;;;;;5092953;28;20027;-67
2021/05/20 11:27:03;;;;;;;13.10;11.68;;;333.60;2329.60;;;;;;5092896;28;20161;-67
2021/05/20 11:29:38;;;;;;;16.02;11.82;;;333.50;2329.60;;;;;;5092482;28;20357;-66
2021/05/20 11:32:32;;;;;;;12.80;11.18;;;333.50;2329.60;;;;;;5091718;28;20342;-66
2021/05/20 11:35:32;;;;;;;9.65;8.57;;;333.50;2329.60;;;;;;5095261;28;20512;-66
2021/05/20 11:38:00;;;;;;;10.32;8.75;;;333.50;2329.60;;;;;;5096551;28;20531;-66
2021/05/20 11:40:33;;;;;;;10.20;8.38;;;333.40;2329.60;;;;;;5096514;28;20012;-66
2021/05/20 11:43:07;;;;;;;10.38;9.15;;;333.40;2329.60;;;;;;5096680;28;20060;-67
2021/05/20 11:45:43;;;;;;;10.60;8.20;;;333.30;2329.60;;;;;;5096740;28;20407;-67
2021/05/20 11:48:20;;;;;;;12.00;9.60;;;333.30;2329.60;;;;;;5096901;28;20359;-65
2021/05/20 11:50:52;;;;;;;11.05;9.95;;;333.30;2329.60;;;;;;5096304;28;20016;-67
2021/05/20 11:53:34;;;;;;;12.93;9.00;;;333.30;2329.60;;;;;;5096104;28;20024;-67
2021/05/20 11:56:09;;;;;;;13.40;11.18;;;333.30;2329.60;;;;;;5096119;28;20410;-67
2021/05/20 11:58:49;;;;;;;14.13;10.93;;;333.30;2329.60;;;;;;5096485;28;20342;-66
2021/05/20 12:01:23;;;;;;;12.18;9.93;;;333.40;2329.60;;;;;;5096769;28;20519;-67
2021/05/20 12:04:02;;;;;;;13.05;11.65;;;333.40;2329.60;;;;;;5096305;28;20491;-67
2021/05/20 12:06:28;;;;;;;12.80;11.48;;;333.40;2329.60;;;;;;5096240;28;20028;-67
2021/05/20 12:09:24;;;;;;;19.95;12.00;;;333.40;2329.60;;;;;;5096368;28;20365;-65
2021/05/20 12:11:50;;;;;;;14.13;11.88;;;333.40;2329.60;;;;;;5013946;28;20416;-67
2021/05/20 12:14:32;;;;;;;13.75;12.35;;;333.40;2329.60;;;;;;5013948;28;20026;-65
2021/05/20 12:16:59;;;;;;;15.15;12.80;;;333.40;2329.60;;;;;;5013980;28;20394;-68
2021/05/20 12:19:27;;;;;;;15.18;13.68;;;333.40;2329.60;;;;;;5013766;28;20370;-67
2021/05/20 12:22:10;;;;;;;14.05;12.75;;;333.50;2329.60;;;;;;5014142;28;20398;-65
2021/05/20 12:24:45;;;;;;;14.48;13.07;;;333.50;2329.60;;;;;;5013711;28;20455;-67
2021/05/20 12:27:14;;;;;;;13.90;12.50;;;333.50;2329.60;;;;;;5014226;28;20536;-67